Time;durP1;ratioP1;P1;durP2;ratioP2;P2;SDS_P1;SDS_P2;PMS_P1;PMS_P2;Temp;Humidity;BMP_temperature;BMP_pressure;BME280_temperature;BME280_humidity;BME280_pressure;Samples;Min_cycle;Max_cycle;Signal;HPM_P1;HPM_P2
2022/03/06 00:00:09;;;;;;;;;;;;;;;-1.05;62.79;101853.38;1701628;84;20534;-73
2022/03/06 00:02:36;;;;;;;;;;;;;;;-1.09;62.84;101849.80;1696837;84;20215;-73
2022/03/06 00:05:03;;;;;;;;;;;;;;;-1.10;62.92;101846.80;1673272;84;20494;-73
2022/03/06 00:07:29;;;;;;;;;;;;;;;-1.11;62.82;101845.45;1694562;84;20707;-74
2022/03/06 00:09:55;;;;;;;;;;;;;;;-1.13;62.93;101846.63;1695631;83;20196;-74
2022/03/06 00:12:21;;;;;;;;;;;;;;;-1.15;62.88;101843.15;1701670;84;20148;-74
2022/03/06 00:14:46;;;;;;;;;;;;;;;-1.18;62.86;101845.92;1701439;84;20220;-73
2022/03/06 00:17:12;;;;;;;;;;;;;;;-1.20;62.89;101843.31;1688517;83;20252;-73
2022/03/06 00:19:38;;;;;;;;;;;;;;;-1.22;62.83;101841.09;1701316;83;20270;-74
2022/03/06 00:22:04;;;;;;;;;;;;;;;-1.23;62.88;101844.81;1701749;84;20227;-73
2022/03/06 00:24:30;;;;;;;;;;;;;;;-1.26;62.80;101843.39;1696562;84;20227;-74
2022/03/06 00:26:56;;;;;;;;;;;;;;;-1.31;62.76;101838.48;1678554;84;20202;-74
2022/03/06 00:29:22;;;;;;;;;;;;;;;-1.35;62.77;101845.05;1673823;85;20237;-74
2022/03/06 00:31:49;;;;;;;;;;;;;;;-1.38;62.85;101841.09;1675373;85;20182;-73
2022/03/06 00:34:17;;;;;;;;;;;;;;;-1.41;62.81;101843.07;1682847;84;20224;-73
2022/03/06 00:36:44;;;;;;;;;;;;;;;-1.43;62.85;101840.85;1636743;87;20190;-73
2022/03/06 00:39:15;;;;;;;;;;;;;;;-1.44;62.82;101838.23;1633634;87;20230;-74
2022/03/06 00:41:41;;;;;;;;;;;;;;;-1.47;62.81;101839.34;1656584;86;20183;-75
2022/03/06 00:44:07;;;;;;;;;;;;;;;-1.49;62.96;101837.13;1681803;84;20492;-74
2022/03/06 00:46:35;;;;;;;;;;;;;;;-1.51;62.91;101842.52;1648110;86;20208;-74
2022/03/06 00:49:01;;;;;;;;;;;;;;;-1.54;62.88;101845.76;1645890;86;20151;-74
2022/03/06 00:51:28;;;;;;;;;;;;;;;-1.60;62.81;101842.94;1626619;85;20214;-75
2022/03/06 00:53:54;;;;;;;;;;;;;;;-1.65;62.86;101841.81;1632115;87;20698;-75
2022/03/06 00:56:20;;;;;;;;;;;;;;;-1.66;62.92;101842.61;1611533;88;20174;-75
2022/03/06 00:58:49;;;;;;;;;;;;;;;-1.69;62.85;101841.17;1694679;84;20201;-75
2022/03/06 01:01:15;;;;;;;;;;;;;;;-1.71;63.00;101841.49;1633955;87;20154;-75
2022/03/06 01:03:41;;;;;;;;;;;;;;;-1.75;62.99;101837.05;1633806;87;20201;-75
2022/03/06 01:06:07;;;;;;;;;;;;;;;-1.81;63.02;101833.79;1639201;86;20298;-74
2022/03/06 01:08:33;;;;;;;;;;;;;;;-1.87;63.00;101832.59;1659214;85;20219;-74
2022/03/06 01:10:58;;;;;;;;;;;;;;;-1.91;62.89;101835.75;1633718;86;20221;-74
2022/03/06 01:13:27;;;;;;;;;;;;;;;-1.98;62.95;101837.47;1633368;87;20518;-74
2022/03/06 01:15:52;;;;;;;;;;;;;;;-2.01;62.97;101833.98;1640397;86;20222;-74
2022/03/06 01:18:20;;;;;;;;;;;;;;;-2.05;62.87;101832.08;1693771;84;20199;-74
2022/03/06 01:20:45;;;;;;;;;;;;;;;-2.08;62.93;101833.17;1633769;86;20213;-74
2022/03/06 01:23:11;;;;;;;;;;;;;;;-2.12;62.92;101836.75;1675606;85;20180;-74
2022/03/06 01:25:38;;;;;;;;;;;;;;;-2.20;62.82;101838.00;1633606;87;20201;-74
2022/03/06 01:28:04;;;;;;;;;;;;;;;-2.26;62.82;101837.27;1633653;86;20368;-73
2022/03/06 01:30:30;;;;;;;;;;;;;;;-2.31;62.90;101838.67;1633829;86;20173;-74
2022/03/06 01:32:56;;;;;;;;;;;;;;;-2.35;62.97;101839.28;1675866;84;20400;-75
2022/03/06 01:35:22;;;;;;;;;;;;;;;-2.39;62.97;101840.77;1633818;86;20318;-74
2022/03/06 01:37:48;;;;;;;;;;;;;;;-2.41;62.99;101833.87;1633190;87;20218;-74
2022/03/06 01:40:18;;;;;;;;;;;;;;;-2.44;62.98;101835.84;1675414;84;20204;-74
2022/03/06 01:42:44;;;;;;;;;;;;;;;-2.46;63.00;101831.48;1635412;86;20162;-74
2022/03/06 01:45:11;;;;;;;;;;;;;;;-2.50;63.04;101839.30;1635401;87;20170;-74
2022/03/06 01:47:46;;;;;;;;;;;;;;;-2.54;63.05;101833.98;1655212;86;21077;-74
2022/03/06 01:50:17;;;;;;;;;;;;;;;-2.56;63.15;101834.28;1648637;86;20156;-74
2022/03/06 01:52:44;;;;;;;;;;;;;;;-2.58;63.14;101829.13;1661945;86;20116;-74
2022/03/06 01:55:11;;;;;;;;;;;;;;;-2.58;63.15;101835.86;1644105;86;20232;-74
2022/03/06 01:57:39;;;;;;;;;;;;;;;-2.59;63.18;101827.38;1637882;86;20162;-74
2022/03/06 02:00:08;;;;;;;;;;;;;;;-2.60;63.09;101833.66;1651125;86;20771;-74
2022/03/06 02:02:34;;;;;;;;;;;;;;;-2.62;63.14;101828.52;1662135;85;20132;-74
2022/03/06 02:05:00;;;;;;;;;;;;;;;-2.68;63.17;101831.57;1661697;86;20199;-74
2022/03/06 02:07:27;;;;;;;;;;;;;;;-2.71;63.14;101836.45;1640668;85;20205;-74
2022/03/06 02:09:53;;;;;;;;;;;;;;;-2.73;63.15;101828.30;1635547;87;20154;-74
2022/03/06 02:12:22;;;;;;;;;;;;;;;-2.77;63.21;101824.72;1634684;87;20226;-74
2022/03/06 02:14:57;;;;;;;;;;;;;;;-2.80;63.29;101824.54;1634029;86;20540;-74
2022/03/06 02:17:23;;;;;;;;;;;;;;;-2.82;63.30;101827.38;1651383;86;20221;-74
2022/03/06 02:19:55;;;;;;;;;;;;;;;-2.84;63.35;101824.28;1647392;86;20118;-75
2022/03/06 02:22:27;;;;;;;;;;;;;;;-2.83;63.42;101819.70;1635370;87;20158;-74
2022/03/06 02:25:00;;;;;;;;;;;;;;;-2.83;63.32;101820.56;1633980;87;20177;-74
2022/03/06 02:27:26;;;;;;;;;;;;;;;-2.84;63.31;101816.69;1640683;85;20505;-74
2022/03/06 02:29:52;;;;;;;;;;;;;;;-2.86;63.27;101813.19;1633623;87;20226;-74
2022/03/06 02:32:21;;;;;;;;;;;;;;;-2.89;63.37;101813.02;1676353;85;20193;-74
2022/03/06 02:34:49;;;;;;;;;;;;;;;-2.90;63.32;101813.41;1689953;84;20175;-74
2022/03/06 02:37:18;;;;;;;;;;;;;;;-2.91;63.29;101812.05;1638980;85;20167;-75
2022/03/06 02:39:45;;;;;;;;;;;;;;;-2.94;63.30;101813.14;1639319;85;20257;-74
2022/03/06 02:42:25;;;;;;;;;;;;;;;-2.96;63.37;101813.45;1678548;84;20619;-74
2022/03/06 02:44:51;;;;;;;;;;;;;;;-2.98;63.38;101803.63;1633641;86;20238;-74
2022/03/06 02:47:19;;;;;;;;;;;;;;;-3.03;63.42;101804.23;1655887;86;20467;-75
2022/03/06 02:49:44;;;;;;;;;;;;;;;-3.04;63.35;101801.23;1685397;84;20284;-74
2022/03/06 02:52:10;;;;;;;;;;;;;;;-3.07;63.46;101799.78;1634180;86;20209;-74
2022/03/06 02:54:36;;;;;;;;;;;;;;;-3.08;63.48;101799.30;1646667;86;20278;-75
2022/03/06 02:57:04;;;;;;;;;;;;;;;-3.11;63.45;101791.53;1633789;86;20246;-75
2022/03/06 02:59:36;;;;;;;;;;;;;;;-3.12;63.50;101794.85;1633996;86;20226;-75
2022/03/06 03:02:02;;;;;;;;;;;;;;;-3.13;63.55;101787.20;1639763;86;20245;-74
2022/03/06 03:04:28;;;;;;;;;;;;;;;-3.15;63.47;101788.77;1635234;87;20159;-74
2022/03/06 03:06:54;;;;;;;;;;;;;;;-3.16;63.55;101798.41;1638419;86;20252;-74
2022/03/06 03:09:20;;;;;;;;;;;;;;;-3.15;63.58;101790.04;1662488;86;20179;-75
2022/03/06 03:11:47;;;;;;;;;;;;;;;-3.15;63.63;101797.23;1662389;85;21255;-74
2022/03/06 03:14:13;;;;;;;;;;;;;;;-3.17;63.53;101800.46;1659411;86;21643;-75
2022/03/06 03:16:39;;;;;;;;;;;;;;;-3.19;63.57;101799.50;1660981;86;20209;-75
2022/03/06 03:19:05;;;;;;;;;;;;;;;-3.23;63.54;101799.71;1631844;86;20536;-75
2022/03/06 03:21:31;;;;;;;;;;;;;;;-3.23;63.65;101801.36;1617623;87;20209;-74
2022/03/06 03:23:57;;;;;;;;;;;;;;;-3.24;63.63;101800.89;1645989;87;20180;-75
2022/03/06 03:26:22;;;;;;;;;;;;;;;-3.27;63.81;101804.50;1626646;87;20252;-75
2022/03/06 03:28:48;;;;;;;;;;;;;;;-3.27;63.82;101805.38;1619325;87;20212;-75
2022/03/06 03:31:14;;;;;;;;;;;;;;;-3.27;63.80;101805.38;1606353;87;20231;-75
2022/03/06 03:33:42;;;;;;;;;;;;;;;-3.27;63.83;101803.23;1688774;84;20158;-75
2022/03/06 03:36:09;;;;;;;;;;;;;;;-3.24;64.02;101797.09;1633993;87;20210;-75
2022/03/06 03:38:35;;;;;;;;;;;;;;;-3.18;64.07;101794.92;1635960;86;20138;-75
2022/03/06 03:41:02;;;;;;;;;;;;;;;-3.17;63.90;101797.93;1648589;86;20195;-74
2022/03/06 03:43:28;;;;;;;;;;;;;;;-3.15;63.90;101801.42;1660573;86;20239;-74
2022/03/06 03:45:57;;;;;;;;;;;;;;;-3.15;63.87;101796.36;1661681;85;20129;-74
2022/03/06 03:48:22;;;;;;;;;;;;;;;-3.14;63.88;101801.52;1694683;84;20137;-74
2022/03/06 03:50:48;;;;;;;;;;;;;;;-3.13;63.90;101793.53;1676146;84;21565;-74
2022/03/06 03:53:14;;;;;;;;;;;;;;;-3.11;63.92;101790.66;1633782;87;20280;-74
2022/03/06 03:55:40;;;;;;;;;;;;;;;-3.08;64.04;101794.25;1633818;87;20653;-74
2022/03/06 03:58:06;;;;;;;;;;;;;;;-3.06;64.04;101799.39;1683760;84;20209;-74
2022/03/06 04:00:32;;;;;;;;;;;;;;;-3.02;64.10;101796.26;1697031;84;20202;-74
2022/03/06 04:02:58;;;;;;;;;;;;;;;-3.03;64.03;101794.12;1649537;86;20167;-74
2022/03/06 04:05:24;;;;;;;;;;;;;;;-3.01;64.16;101798.88;1660558;86;20266;-74
2022/03/06 04:07:50;;;;;;;;;;;;;;;-2.96;64.22;101798.27;1662123;86;20813;-74
2022/03/06 04:10:16;;;;;;;;;;;;;;;-2.91;64.26;101795.61;1649295;86;20170;-74
2022/03/06 04:12:42;;;;;;;;;;;;;;;-2.86;64.29;101800.15;1634632;86;20158;-74
2022/03/06 04:15:08;;;;;;;;;;;;;;;-2.82;64.31;101801.20;1634228;86;20848;-74
2022/03/06 04:17:34;;;;;;;;;;;;;;;-2.78;64.29;101800.19;1649313;86;20165;-74
2022/03/06 04:20:00;;;;;;;;;;;;;;;-2.75;64.31;101802.89;1675830;85;20255;-74
2022/03/06 04:22:25;;;;;;;;;;;;;;;-2.72;64.32;101806.86;1638423;85;20217;-74
2022/03/06 04:24:51;;;;;;;;;;;;;;;-2.69;64.48;101806.17;1639380;86;20266;-74
2022/03/06 04:27:17;;;;;;;;;;;;;;;-2.65;64.47;101806.82;1634364;85;20201;-74
2022/03/06 04:29:42;;;;;;;;;;;;;;;-2.63;64.49;101807.78;1646253;86;20314;-74
2022/03/06 04:32:08;;;;;;;;;;;;;;;-2.60;64.56;101810.88;1634566;86;20245;-74
2022/03/06 04:34:34;;;;;;;;;;;;;;;-2.56;64.56;101810.23;1636219;86;20748;-74
2022/03/06 04:36:59;;;;;;;;;;;;;;;-2.53;64.62;101799.87;1636166;86;20217;-74
2022/03/06 04:39:25;;;;;;;;;;;;;;;-2.50;64.65;101800.44;1636161;87;20269;-75
2022/03/06 04:41:51;;;;;;;;;;;;;;;-2.49;64.65;101804.33;1636015;87;20241;-74
2022/03/06 04:44:23;;;;;;;;;;;;;;;-2.45;64.64;101802.84;1636380;86;20158;-74
2022/03/06 04:46:49;;;;;;;;;;;;;;;-2.41;64.67;101804.75;1638162;86;20504;-74
2022/03/06 04:49:15;;;;;;;;;;;;;;;-2.38;64.70;101803.26;1635923;87;20565;-74
2022/03/06 04:51:42;;;;;;;;;;;;;;;-2.39;64.74;101802.78;1636201;87;20984;-74
2022/03/06 04:54:08;;;;;;;;;;;;;;;-2.37;64.75;101797.80;1651938;86;20136;-74
2022/03/06 04:56:35;;;;;;;;;;;;;;;-2.35;64.77;101802.56;1672256;85;20155;-74
2022/03/06 04:59:01;;;;;;;;;;;;;;;-2.33;64.82;101800.98;1655812;86;20126;-74
2022/03/06 05:01:27;;;;;;;;;;;;;;;-2.30;64.79;101799.02;1637323;86;20241;-74
2022/03/06 05:03:52;;;;;;;;;;;;;;;-2.30;64.78;101801.55;1636228;87;20308;-74
2022/03/06 05:06:19;;;;;;;;;;;;;;;-2.32;64.72;101800.59;1635449;87;20153;-74
2022/03/06 05:08:45;;;;;;;;;;;;;;;-2.33;64.79;101798.45;1647319;86;20514;-74
2022/03/06 05:11:11;;;;;;;;;;;;;;;-2.31;64.87;101797.27;1635588;86;20488;-74
2022/03/06 05:13:37;;;;;;;;;;;;;;;-2.27;64.95;101795.38;1635742;86;20193;-74
2022/03/06 05:16:04;;;;;;;;;;;;;;;-2.26;64.93;101791.66;1640335;86;20557;-74
2022/03/06 05:18:30;;;;;;;;;;;;;;;-2.24;65.01;101794.28;1649950;87;20487;-74
2022/03/06 05:20:56;;;;;;;;;;;;;;;-2.22;64.97;101797.77;1641299;85;20110;-74
2022/03/06 05:23:22;;;;;;;;;;;;;;;-2.21;64.93;101801.66;1617716;88;20708;-74
2022/03/06 05:25:49;;;;;;;;;;;;;;;-2.18;65.02;101794.22;1637528;87;20829;-75
2022/03/06 05:28:15;;;;;;;;;;;;;;;-2.16;65.01;101796.44;1646463;86;21105;-75
2022/03/06 05:30:41;;;;;;;;;;;;;;;-2.13;65.02;101795.34;1646329;86;20992;-74
2022/03/06 05:33:07;;;;;;;;;;;;;;;-2.13;65.08;101800.80;1637287;87;20442;-74
2022/03/06 05:35:33;;;;;;;;;;;;;;;-2.12;65.16;101800.89;1639603;86;20746;-74
2022/03/06 05:37:59;;;;;;;;;;;;;;;-2.10;65.22;101798.44;1635684;86;20328;-74
2022/03/06 05:40:25;;;;;;;;;;;;;;;-2.08;65.07;101803.19;1635929;87;20296;-74
2022/03/06 05:42:50;;;;;;;;;;;;;;;-2.06;65.13;101800.31;1642648;86;20731;-75
2022/03/06 05:45:16;;;;;;;;;;;;;;;-2.05;65.13;101793.19;1661285;85;20210;-75
2022/03/06 05:47:43;;;;;;;;;;;;;;;-2.04;65.12;101798.34;1658943;86;20468;-74
2022/03/06 05:50:10;;;;;;;;;;;;;;;-2.01;65.17;101797.63;1661901;86;20517;-75
2022/03/06 05:52:36;;;;;;;;;;;;;;;-1.98;65.23;101794.39;1661443;86;21048;-74
2022/03/06 05:55:03;;;;;;;;;;;;;;;-1.96;65.18;101790.27;1641154;85;20844;-75
2022/03/06 05:57:29;;;;;;;;;;;;;;;-1.95;64.83;101794.16;1645478;86;20247;-74
2022/03/06 05:59:55;;;;;;;;;;;;;;;-1.97;65.16;101793.60;1635685;86;20534;-74
2022/03/06 06:02:22;;;;;;;;;;;;;;;-1.96;65.31;101791.55;1636137;87;20258;-75
2022/03/06 06:04:48;;;;;;;;;;;;;;;-1.92;65.29;101793.45;1635896;87;20666;-74
2022/03/06 06:07:15;;;;;;;;;;;;;;;-1.88;65.42;101795.36;1655947;86;20223;-74
2022/03/06 06:09:41;;;;;;;;;;;;;;;-1.83;65.52;101793.94;1662975;85;20409;-74
2022/03/06 06:12:08;;;;;;;;;;;;;;;-1.77;65.50;101798.94;1663023;85;20238;-74
2022/03/06 06:14:34;;;;;;;;;;;;;;;-1.71;65.50;101791.66;1636048;86;20250;-73
2022/03/06 06:16:59;;;;;;;;;;;;;;;-1.65;65.51;101790.23;1646846;86;20731;-73
2022/03/06 06:19:25;;;;;;;;;;;;;;;-1.62;65.57;101791.27;1656587;84;20836;-73
2022/03/06 06:21:52;;;;;;;;;;;;;;;-1.57;65.46;101786.43;1658638;84;20542;-73
2022/03/06 06:24:18;;;;;;;;;;;;;;;-1.52;65.63;101792.18;1660035;84;20738;-74
2022/03/06 06:26:49;;;;;;;;;;;;;;;-1.48;65.62;101787.74;1663007;84;21177;-73
2022/03/06 06:29:15;;;;;;;;;;;;;;;-1.41;65.65;101787.66;1639219;85;20435;-74
2022/03/06 06:31:41;;;;;;;;;;;;;;;-1.36;65.65;101784.56;1648127;85;20486;-74
2022/03/06 06:34:07;;;;;;;;;;;;;;;-1.31;65.64;101779.72;1632677;86;20698;-74
2022/03/06 06:36:33;;;;;;;;;;;;;;;-1.28;65.67;101779.02;1632610;86;20822;-74
2022/03/06 06:38:59;;;;;;;;;;;;;;;-1.23;65.61;101782.66;1630636;86;20220;-74
2022/03/06 06:41:25;;;;;;;;;;;;;;;-1.18;65.59;101778.67;1651375;85;20484;-74
2022/03/06 06:43:51;;;;;;;;;;;;;;;-1.13;65.63;101779.38;1635713;86;20726;-74
2022/03/06 06:46:17;;;;;;;;;;;;;;;-1.09;65.60;101782.95;1649175;85;20190;-74
2022/03/06 06:48:42;;;;;;;;;;;;;;;-1.05;65.62;101785.71;1651029;85;20711;-74
2022/03/06 06:51:09;;;;;;;;;;;;;;;-0.99;65.63;101790.19;1651265;85;21444;-74
2022/03/06 06:53:36;;;;;;;;;;;;;;;-0.95;65.64;101788.27;1649849;85;20168;-74
2022/03/06 06:56:02;;;;;;;;;;;;;;;-0.90;65.62;101791.04;1635287;86;20571;-74
2022/03/06 06:58:28;;;;;;;;;;;;;;;-0.84;65.65;101798.56;1649285;85;20191;-74
2022/03/06 07:00:54;;;;;;;;;;;;;;;-0.78;65.69;101798.86;1517551;84;10000350;-74
2022/03/06 07:03:20;;;;;;;;;;;;;;;-0.72;65.78;101797.02;1631508;86;20250;-74
2022/03/06 07:05:47;;;;;;;;;;;;;;;-0.66;65.75;101789.70;1635081;86;20599;-75
2022/03/06 07:08:13;;;;;;;;;;;;;;;-0.59;65.76;101789.59;1642868;86;20104;-75
2022/03/06 07:10:39;;;;;;;;;;;;;;;-0.51;65.82;101792.94;1631222;86;20119;-75
2022/03/06 07:13:06;;;;;;;;;;;;;;;-0.43;65.77;101789.09;1642196;86;20131;-75
2022/03/06 07:15:32;;;;;;;;;;;;;;;-0.36;65.89;101791.52;1637819;86;20199;-75
2022/03/06 07:18:04;;;;;;;;;;;;;;;-0.29;65.89;101786.33;1568968;84;10000342;-74
2022/03/06 07:20:30;;;;;;;;;;;;;;;-0.20;66.05;101785.48;1661596;84;20520;-74
2022/03/06 07:22:56;;;;;;;;;;;;;;;-0.13;65.88;101790.92;1641132;86;20491;-74
2022/03/06 07:25:22;;;;;;;;;;;;;;;-0.04;65.94;101790.08;1649789;86;20164;-74
2022/03/06 07:27:48;;;;;;;;;;;;;;;0.04;66.07;101785.31;1632753;86;20479;-75
2022/03/06 07:30:14;;;;;;;;;;;;;;;0.12;66.08;101783.11;1641127;86;20654;-75
2022/03/06 07:32:46;;;;;;;;;;;;;;;0.21;66.15;101777.17;1634823;86;20148;-74
2022/03/06 07:35:12;;;;;;;;;;;;;;;0.30;66.17;101780.12;1638778;86;20223;-74
2022/03/06 07:37:38;;;;;;;;;;;;;;;0.37;66.19;101783.41;1642581;86;20138;-74
2022/03/06 07:40:06;;;;;;;;;;;;;;;0.46;66.23;101787.62;1642973;86;20108;-74
2022/03/06 07:42:31;;;;;;;;;;;;;;;0.53;66.14;101784.51;1639594;86;20115;-74
2022/03/06 07:44:57;;;;;;;;;;;;;;;0.61;66.04;101780.62;1633838;86;20179;-74
2022/03/06 07:47:23;;;;;;;;;;;;;;;0.69;66.00;101778.81;1639929;86;20268;-74
2022/03/06 07:49:49;;;;;;;;;;;;;;;0.77;65.87;101782.55;1640696;86;20235;-75
2022/03/06 07:52:16;;;;;;;;;;;;;;;0.84;65.78;101789.23;1640131;86;20233;-75
2022/03/06 07:54:42;;;;;;;;;;;;;;;0.92;65.71;101790.44;1640617;86;20159;-75
2022/03/06 07:57:07;;;;;;;;;;;;;;;0.99;65.73;101794.11;1641148;86;20781;-75
2022/03/06 07:59:35;;;;;;;;;;;;;;;1.06;65.63;101797.34;1635202;86;20254;-74
2022/03/06 08:02:00;;;;;;;;;;;;;;;1.13;65.61;101795.92;1616992;84;622477;-74
2022/03/06 08:04:26;;;;;;;;;;;;;;;1.19;65.57;101794.50;1634005;86;20189;-74
2022/03/06 08:06:52;;;;;;;;;;;;;;;1.24;65.37;101794.28;1641981;85;20276;-74
2022/03/06 08:09:18;;;;;;;;;;;;;;;1.30;65.18;101797.48;1646005;86;20221;-74
2022/03/06 08:11:44;;;;;;;;;;;;;;;1.33;65.11;101791.23;1654704;84;20718;-74
2022/03/06 08:14:10;;;;;;;;;;;;;;;1.38;65.11;101789.74;1623280;86;20168;-74
2022/03/06 08:16:36;;;;;;;;;;;;;;;1.44;65.03;101787.84;1640126;86;20255;-74
2022/03/06 08:19:02;;;;;;;;;;;;;;;1.48;65.05;101795.67;1637622;86;20412;-75
2022/03/06 08:21:28;;;;;;;;;;;;;;;1.53;65.05;101797.13;1640955;86;20882;-75
2022/03/06 08:23:54;;;;;;;;;;;;;;;1.58;65.06;101794.33;1629808;86;20713;-75
2022/03/06 08:26:22;;;;;;;;;;;;;;;1.61;64.86;101797.00;1635472;86;20271;-79
2022/03/06 08:28:48;;;;;;;;;;;;;;;1.64;64.83;101799.27;1640775;86;20547;-79
2022/03/06 08:31:14;;;;;;;;;;;;;;;1.68;64.75;101800.66;1640477;86;20873;-80
2022/03/06 08:33:39;;;;;;;;;;;;;;;1.69;64.71;101801.98;1636614;85;20218;-80
2022/03/06 08:36:05;;;;;;;;;;;;;;;1.73;64.71;101800.43;1643763;85;20194;-80
2022/03/06 08:38:31;;;;;;;;;;;;;;;1.77;64.74;101798.06;1644757;85;20184;-79
2022/03/06 08:40:57;;;;;;;;;;;;;;;1.82;64.40;101806.75;1644266;85;20214;-79
2022/03/06 08:43:23;;;;;;;;;;;;;;;1.85;64.41;101804.73;1645023;85;20949;-79
2022/03/06 08:45:49;;;;;;;;;;;;;;;1.88;64.33;101801.02;1644583;85;20302;-78
2022/03/06 08:48:15;;;;;;;;;;;;;;;1.92;64.16;101806.70;1645679;85;20171;-78
2022/03/06 08:50:40;;;;;;;;;;;;;;;1.96;64.34;101806.02;1641982;85;20171;-78
2022/03/06 08:53:07;;;;;;;;;;;;;;;2.01;64.18;101807.05;1643543;85;20184;-78
2022/03/06 08:55:33;;;;;;;;;;;;;;;2.02;64.25;101797.31;1644445;85;20187;-78
2022/03/06 08:57:59;;;;;;;;;;;;;;;2.07;64.14;101794.94;1610236;87;20209;-79
2022/03/06 09:00:25;;;;;;;;;;;;;;;2.10;64.09;101809.05;1605529;87;20173;-78
2022/03/06 09:02:50;;;;;;;;;;;;;;;2.13;64.03;101802.79;1609344;87;20238;-79
2022/03/06 09:05:21;;;;;;;;;;;;;;;2.16;63.98;101801.62;1603308;87;20230;-79
2022/03/06 09:07:47;;;;;;;;;;;;;;;2.18;63.95;101803.83;1604175;87;20281;-79
2022/03/06 09:10:13;;;;;;;;;;;;;;;2.19;63.87;101802.61;1606328;87;20241;-79
2022/03/06 09:12:40;;;;;;;;;;;;;;;2.24;63.84;101807.88;1607408;87;20201;-79
2022/03/06 09:15:08;;;;;;;;;;;;;;;2.27;63.89;101806.31;1605077;87;20185;-79
2022/03/06 09:17:34;;;;;;;;;;;;;;;2.32;63.84;101805.20;1647629;85;20188;-79
2022/03/06 09:20:02;;;;;;;;;;;;;;;2.38;63.88;101800.73;1644798;85;20196;-80
2022/03/06 09:22:28;;;;;;;;;;;;;;;2.44;63.85;101806.06;1645919;85;20195;-80
2022/03/06 09:24:54;;;;;;;;;;;;;;;2.48;63.70;101799.84;1645139;85;20529;-80
2022/03/06 09:27:20;;;;;;;;;;;;;;;2.54;63.80;101801.75;1642147;85;20254;-80
2022/03/06 09:29:45;;;;;;;;;;;;;;;2.57;63.66;101795.06;1642885;85;21521;-80
2022/03/06 09:32:11;;;;;;;;;;;;;;;2.57;63.69;101801.45;1643373;85;20890;-77
2022/03/06 09:34:37;;;;;;;;;;;;;;;2.62;63.59;101797.34;1688818;82;20249;-80
2022/03/06 09:37:03;;;;;;;;;;;;;;;2.69;63.66;101792.45;1704095;82;20261;-80
2022/03/06 09:39:29;;;;;;;;;;;;;;;2.71;63.50;101795.52;1698510;82;20754;-80
2022/03/06 09:41:56;;;;;;;;;;;;;;;2.76;63.61;101792.72;1704000;82;20194;-74
2022/03/06 09:44:27;;;;;;;;;;;;;;;2.80;63.51;101793.70;1659701;85;20211;-74
2022/03/06 09:46:55;;;;;;;;;;;;;;;2.82;63.14;101792.06;1639110;85;20192;-74
2022/03/06 09:49:29;;;;;;;;;;;;;;;2.82;63.38;101789.10;1630496;86;20205;-74
2022/03/06 09:51:56;;;;;;;;;;;;;;;2.86;63.43;101797.33;1701638;82;20202;-74
2022/03/06 09:54:22;;;;;;;;;;;;;;;2.89;63.38;101794.02;1592338;83;5001230;-74
2022/03/06 09:56:48;;;;;;;;;;;;;;;2.91;63.39;101789.41;1658801;84;20168;-74
2022/03/06 09:59:14;;;;;;;;;;;;;;;2.91;63.32;101794.52;1700257;82;20127;-75
2022/03/06 10:01:40;;;;;;;;;;;;;;;2.93;63.24;101794.17;1659814;85;20217;-78
2022/03/06 10:04:29;;;;;;;;;;;;;;;2.97;63.21;101792.59;1658969;85;20179;-78
2022/03/06 10:07:04;;;;;;;;;;;;;;;3.02;63.18;101788.50;1661823;84;20529;-78
2022/03/06 10:09:43;;;;;;;;;;;;;;;3.05;62.95;101784.77;1697292;82;20124;-79
2022/03/06 10:12:24;;;;;;;;;;;;;;;3.10;63.28;101787.48;1685153;82;20589;-79
2022/03/06 10:14:54;;;;;;;;;;;;;;;3.12;63.15;101786.68;1699321;82;20122;-78
2022/03/06 10:17:28;;;;;;;;;;;;;;;3.19;63.16;101789.90;1702526;82;20127;-77
2022/03/06 10:20:06;;;;;;;;;;;;;;;3.24;62.95;101778.55;1705230;82;20123;-77
2022/03/06 10:22:43;;;;;;;;;;;;;;;3.22;62.95;101784.02;1704652;82;20163;-78
2022/03/06 10:25:16;;;;;;;;;;;;;;;3.22;63.26;101781.46;1645275;86;20242;-78
2022/03/06 10:27:54;;;;;;;;;;;;;;;3.18;63.16;101781.77;1658271;84;20206;-78
2022/03/06 10:30:37;;;;;;;;;;;;;;;3.15;63.07;101787.19;1635863;85;20235;-78
2022/03/06 10:33:07;;;;;;;;;;;;;;;3.12;62.94;101790.95;1660728;85;21926;-78
2022/03/06 10:35:41;;;;;;;;;;;;;;;3.11;62.79;101783.70;1694680;82;20197;-78
2022/03/06 10:38:34;;;;;;;;;;;;;;;3.10;62.65;101785.80;1689617;82;20148;-78
2022/03/06 10:41:13;;;;;;;;;;;;;;;3.02;62.53;101788.50;1703441;82;20198;-78
2022/03/06 10:43:41;;;;;;;;;;;;;;;2.93;62.80;101783.08;1689131;82;20229;-78
2022/03/06 10:46:11;;;;;;;;;;;;;;;2.91;62.58;101782.16;1701172;82;20541;-79
2022/03/06 10:48:38;;;;;;;;;;;;;;;2.93;62.72;101777.97;1702634;82;20119;-78
2022/03/06 10:51:08;;;;;;;;;;;;;;;2.94;62.33;101780.58;1690182;82;20191;-78
2022/03/06 10:53:34;;;;;;;;;;;;;;;3.00;62.50;101779.92;1694831;82;20171;-78
2022/03/06 10:56:14;;;;;;;;;;;;;;;3.12;62.58;101784.56;1704831;82;20599;-78
2022/03/06 10:58:43;;;;;;;;;;;;;;;3.19;62.57;101775.84;1714171;81;20180;-78
2022/03/06 11:01:08;;;;;;;;;;;;;;;3.27;62.35;101776.95;1704095;82;20176;-78
2022/03/06 11:03:35;;;;;;;;;;;;;;;3.30;62.40;101774.50;1702472;82;20261;-78
2022/03/06 11:06:03;;;;;;;;;;;;;;;3.32;62.27;101773.27;1671644;84;20221;-78
2022/03/06 11:08:30;;;;;;;;;;;;;;;3.24;61.62;101773.03;1656071;84;20607;-78
2022/03/06 11:10:57;;;;;;;;;;;;;;;3.18;62.17;101771.55;1636736;86;20163;-79
2022/03/06 11:13:23;;;;;;;;;;;;;;;3.20;62.00;101769.91;1641560;86;20197;-78
2022/03/06 11:15:49;;;;;;;;;;;;;;;3.25;62.04;101766.23;1640424;86;20242;-78
2022/03/06 11:18:16;;;;;;;;;;;;;;;3.26;61.90;101767.55;1641099;86;20168;-78
2022/03/06 11:20:44;;;;;;;;;;;;;;;3.27;61.87;101765.45;1635948;86;36273;-77
2022/03/06 11:23:33;;;;;;;;;;;;;;;3.28;62.28;101764.64;1637751;86;20345;-77
2022/03/06 11:26:11;;;;;;;;;;;;;;;3.21;61.98;101760.15;1640760;86;20238;-78
2022/03/06 11:28:47;;;;;;;;;;;;;;;3.25;61.76;101757.28;1641416;86;20156;-78
2022/03/06 11:31:15;;;;;;;;;;;;;;;3.32;61.78;101753.69;1639271;86;20173;-79
2022/03/06 11:33:43;;;;;;;;;;;;;;;3.42;62.17;101753.58;1632411;86;20255;-78
2022/03/06 11:36:26;;;;;;;;;;;;;;;3.52;61.54;101748.34;1643126;86;20335;-79
2022/03/06 11:38:53;;;;;;;;;;;;;;;3.54;61.81;101743.73;1645986;86;20149;-80
2022/03/06 11:41:20;;;;;;;;;;;;;;;3.52;61.80;101735.14;1645081;86;20199;-78
2022/03/06 11:43:48;;;;;;;;;;;;;;;3.55;62.10;101730.53;1639429;86;20188;-78
2022/03/06 11:46:20;;;;;;;;;;;;;;;3.47;61.25;101733.27;1639732;86;20101;-79
2022/03/06 11:48:53;;;;;;;;;;;;;;;3.36;61.13;101730.38;1631573;85;206464;-78
2022/03/06 11:51:29;;;;;;;;;;;;;;;3.32;61.12;101728.54;1639790;86;20125;-77
2022/03/06 11:54:14;;;;;;;;;;;;;;;3.22;61.30;101726.10;1641896;86;20097;-77
2022/03/06 11:56:50;;;;;;;;;;;;;;;3.18;61.16;101729.79;1634298;86;20145;-77
2022/03/06 11:59:25;;;;;;;;;;;;;;;3.12;61.04;101731.73;1648081;86;20108;-80
2022/03/06 12:01:59;;;;;;;;;;;;;;;3.17;60.92;101724.22;1641744;86;20114;-77
2022/03/06 12:04:31;;;;;;;;;;;;;;;3.22;61.25;101723.55;1662675;84;20128;-77
2022/03/06 12:07:00;;;;;;;;;;;;;;;3.17;61.11;101721.25;1659165;84;20231;-77
2022/03/06 12:09:28;;;;;;;;;;;;;;;3.18;61.06;101722.13;1645935;85;20444;-77
2022/03/06 12:11:57;;;;;;;;;;;;;;;3.19;61.15;101714.51;1651267;85;20187;-77
2022/03/06 12:14:31;;;;;;;;;;;;;;;3.13;60.75;101714.72;1649831;85;20192;-77
2022/03/06 12:17:07;;;;;;;;;;;;;;;3.09;60.83;101709.08;1647888;85;20128;-77
2022/03/06 12:19:42;;;;;;;;;;;;;;;3.11;60.64;101707.45;1647850;85;20249;-77
2022/03/06 12:22:19;;;;;;;;;;;;;;;3.13;60.47;101700.66;1661604;84;20211;-77
2022/03/06 12:24:48;;;;;;;;;;;;;;;3.16;60.61;101703.31;1629495;86;20515;-77
2022/03/06 12:27:23;;;;;;;;;;;;;;;3.17;60.56;101708.89;1623140;86;20496;-77
2022/03/06 12:30:09;;;;;;;;;;;;;;;3.10;60.37;101701.47;1623589;86;20261;-77
2022/03/06 12:32:38;;;;;;;;;;;;;;;3.06;60.35;101708.58;1625414;86;20489;-78
2022/03/06 12:35:08;;;;;;;;;;;;;;;3.06;60.30;101695.80;1618280;86;20210;-78
2022/03/06 12:37:55;;;;;;;;;;;;;;;3.06;60.33;101698.36;1611041;87;20292;-77
2022/03/06 12:40:24;;;;;;;;;;;;;;;2.97;60.28;101698.06;1612261;87;20151;-76
2022/03/06 12:42:54;;;;;;;;;;;;;;;2.98;60.34;101694.69;1610992;87;20279;-76